createdAt,value
2024-01-11T10:41:52.015Z,65.83
2024-01-11T10:42:52.329Z,63.94
2024-01-11T10:43:53.733Z,62.88
2024-01-11T10:44:55.115Z,59.79
2024-01-11T10:45:56.549Z,59.29
2024-01-11T10:46:57.987Z,56.31
2024-01-11T10:48:02.699Z,55.15
2024-01-11T10:49:01.243Z,54.68
2024-01-11T10:50:02.679Z,52.88
2024-01-11T10:51:04.065Z,52.88
2024-01-11T10:52:05.527Z,52.25
2024-01-11T10:53:06.915Z,51.40
2024-01-11T10:54:08.785Z,50.76
2024-01-11T10:55:10.208Z,50.35
2024-01-11T10:56:11.670Z,50.56
2024-01-11T10:57:22.301Z,49.81
2024-01-11T10:58:14.869Z,49.19
2024-01-11T10:59:16.311Z,48.86
2024-01-11T11:00:17.686Z,48.76
2024-01-11T11:01:19.109Z,49.16
2024-01-11T11:02:20.622Z,49.15
2024-01-11T11:03:22.115Z,47.76
2024-01-11T11:04:24.138Z,47.66
2024-01-11T11:05:25.607Z,47.33
2024-01-11T11:06:27.215Z,47.30
2024-01-11T11:07:28.791Z,46.38
2024-01-11T11:08:30.203Z,46.48
2024-01-11T11:09:31.678Z,46.05
2024-01-11T11:10:33.057Z,46.24
2024-01-11T11:11:34.473Z,46.03
2024-01-11T11:12:35.858Z,45.62
2024-01-11T11:13:37.227Z,45.88
2024-01-11T11:14:38.683Z,44.94
2024-01-11T11:15:40.065Z,45.55
2024-01-11T11:16:41.499Z,45.86
2024-01-11T11:17:43.010Z,44.84
2024-01-11T11:18:44.493Z,44.20
2024-01-11T11:19:45.896Z,45.12
2024-01-11T11:20:47.343Z,44.30
2024-01-11T11:21:48.687Z,44.18
2024-01-11T11:22:50.088Z,44.79
2024-01-11T11:23:51.543Z,43.87
2024-01-11T11:24:52.896Z,44.47
2024-01-11T11:25:54.303Z,43.54
2024-01-11T11:26:55.815Z,44.06
2024-01-11T11:27:59.242Z,42.93
2024-01-11T11:28:58.388Z,43.87
2024-01-11T11:29:59.760Z,44.57
2024-01-11T11:31:01.162Z,46.42
2024-01-11T11:32:02.594Z,48.05
2024-01-11T11:33:04.096Z,49.28
2024-01-11T11:34:06.047Z,51.21
2024-01-11T11:35:07.418Z,53.05
2024-01-11T11:36:08.810Z,53.50
2024-01-11T11:37:10.216Z,55.09
2024-01-11T11:38:11.639Z,56.07
2024-01-11T11:39:13.040Z,56.86
2024-01-11T11:40:14.435Z,57.53
2024-01-11T11:41:15.885Z,57.97
2024-01-11T11:42:17.238Z,59.49
2024-01-11T11:43:18.636Z,60.58
2024-01-11T11:44:20.107Z,61.47
2024-01-11T13:09:20.480Z,75.10
2024-01-11T13:10:21.895Z,75.21
2024-01-11T14:57:55.257Z,78.01
2024-01-11T14:58:55.227Z,78.01
